createdAt,value
2022-08-28T06:21:00.668Z,16.40
2022-08-28T06:23:27.478Z,16.30
2022-08-28T06:25:54.252Z,16.30
2022-08-28T06:28:24.127Z,16.30
2022-08-28T06:31:18.358Z,16.50
2022-08-28T06:33:40.375Z,16.50
2022-08-28T06:36:07.816Z,16.80
2022-08-28T06:38:34.800Z,17.00
2022-08-28T06:41:01.725Z,17.10
2022-08-28T06:43:29.804Z,17.10
2022-08-28T06:45:57.714Z,17.10
2022-08-28T06:48:27.488Z,17.10
2022-08-28T06:50:56.053Z,17.00
2022-08-28T06:53:28.517Z,17.00
2022-08-28T06:56:07.691Z,17.00
2022-08-28T06:58:37.695Z,17.00
2022-08-28T07:01:08.648Z,17.00
2022-08-28T07:03:35.704Z,16.90
2022-08-28T07:06:13.223Z,16.80
2022-08-28T07:08:41.819Z,17.00
2022-08-28T07:11:11.302Z,17.00
2022-08-28T07:13:38.134Z,17.10
2022-08-28T07:16:05.207Z,17.20
2022-08-28T07:18:32.196Z,17.10
2022-08-28T07:21:03.320Z,17.10
2022-08-28T07:23:32.026Z,17.20
2022-08-28T07:26:00.215Z,17.20
2022-08-28T07:28:27.075Z,17.20
2022-08-28T07:31:03.592Z,17.30
2022-08-28T07:33:32.507Z,17.40
2022-08-28T07:36:00.726Z,17.40
2022-08-28T07:38:28.012Z,17.40
2022-08-28T07:40:55.386Z,17.30
2022-08-28T07:43:41.085Z,17.30
2022-08-28T07:46:11.452Z,17.40
2022-08-28T07:48:40.680Z,17.30
2022-08-28T07:51:09.103Z,17.30
2022-08-28T07:53:36.779Z,17.40
2022-08-28T07:56:04.982Z,17.50
2022-08-28T07:58:32.829Z,17.50
2022-08-28T08:00:59.837Z,17.40
2022-08-28T08:03:28.834Z,17.40
2022-08-28T08:06:04.806Z,17.30
2022-08-28T08:08:33.924Z,17.40
2022-08-28T08:11:20.726Z,17.50
2022-08-28T08:13:50.891Z,17.50
2022-08-28T08:16:21.607Z,17.60
2022-08-28T08:18:50.511Z,17.70
2022-08-28T08:21:20.431Z,17.80
2022-08-28T08:23:48.275Z,17.90
2022-08-28T08:26:20.346Z,18.00
2022-08-28T08:28:48.256Z,18.00
2022-08-28T08:31:18.909Z,18.00
2022-08-28T08:33:48.452Z,18.00
2022-08-28T08:36:18.374Z,18.00
2022-08-28T08:38:45.979Z,18.10
2022-08-28T08:41:16.704Z,18.00
2022-08-28T08:43:53.051Z,18.10
2022-08-28T08:46:25.990Z,18.40
2022-08-28T08:48:55.376Z,18.60
2022-08-28T08:51:56.110Z,18.50
2022-08-28T08:54:23.071Z,18.60
2022-08-28T08:56:51.535Z,18.60
2022-08-28T08:59:21.403Z,18.70
2022-08-28T09:02:12.165Z,18.50
2022-08-28T09:04:52.898Z,18.60
2022-08-28T09:07:44.278Z,18.80
2022-08-28T09:10:13.549Z,19.00
2022-08-28T09:12:56.538Z,18.90
2022-08-28T09:15:29.997Z,19.00
2022-08-28T09:18:22.493Z,19.00
2022-08-28T09:20:53.947Z,19.10
2022-08-28T09:23:23.097Z,19.10
2022-08-28T09:25:55.016Z,19.10
2022-08-28T09:28:39.057Z,19.30
2022-08-28T09:31:06.042Z,19.40
2022-08-28T09:33:42.157Z,19.70
2022-08-28T09:36:38.382Z,20.10
2022-08-28T09:39:09.648Z,19.60
2022-08-28T09:42:17.683Z,19.60
2022-08-28T09:45:13.731Z,19.60
2022-08-28T09:47:46.321Z,19.20
2022-08-28T09:50:25.753Z,19.20
2022-08-28T09:52:54.785Z,19.20
2022-08-28T09:55:38.887Z,19.50
2022-08-28T09:58:06.613Z,19.30
2022-08-28T10:00:37.266Z,19.60
2022-08-28T10:03:15.599Z,19.50
2022-08-28T10:06:15.351Z,19.50
2022-08-28T10:08:58.630Z,19.50
2022-08-28T10:11:32.259Z,19.50
2022-08-28T10:14:16.565Z,19.30
2022-08-28T10:16:59.628Z,19.40
2022-08-28T10:20:01.234Z,19.70
2022-08-28T10:22:46.906Z,19.80
2022-08-28T10:25:25.954Z,19.60
2022-08-28T10:28:24.873Z,19.30
2022-08-28T10:31:31.562Z,19.20
2022-08-28T10:34:05.608Z,19.10
2022-08-28T10:36:35.277Z,19.10
2022-08-28T10:39:39.754Z,19.20
2022-08-28T10:42:07.530Z,19.30
2022-08-28T10:45:18.305Z,19.40
2022-08-28T10:47:52.484Z,19.30
2022-08-28T10:50:26.885Z,18.90
2022-08-28T10:53:06.301Z,19.00
2022-08-28T10:55:45.084Z,18.80
2022-08-28T10:58:24.321Z,18.80
2022-08-28T11:01:01.042Z,18.70
2022-08-28T11:03:35.306Z,18.60
2022-08-28T11:06:14.289Z,18.60
2022-08-28T11:08:41.428Z,18.70
2022-08-28T11:11:14.942Z,18.50
2022-08-28T11:13:59.739Z,18.60
2022-08-28T11:16:30.232Z,18.60
2022-08-28T11:19:13.932Z,18.60
2022-08-28T11:22:01.807Z,18.30
2022-08-28T11:24:36.409Z,18.30
2022-08-28T11:27:21.460Z,18.30
2022-08-28T11:29:58.935Z,18.40
2022-08-28T11:32:35.207Z,18.40
2022-08-28T11:35:20.337Z,18.50
2022-08-28T11:37:50.158Z,18.30
2022-08-28T11:40:32.217Z,18.30
2022-08-28T11:43:20.695Z,18.30
2022-08-28T11:45:50.554Z,18.30
2022-08-28T11:48:36.068Z,18.40
2022-08-28T11:51:23.668Z,18.40
2022-08-28T11:53:54.688Z,18.30
2022-08-28T11:57:03.071Z,18.20
2022-08-28T11:59:41.598Z,18.20
2022-08-28T12:02:36.865Z,18.20
2022-08-28T12:05:07.603Z,18.10
2022-08-28T12:07:37.406Z,18.10
2022-08-28T12:10:27.803Z,18.20
2022-08-28T12:13:00.309Z,18.20
2022-08-28T12:15:27.285Z,18.10
2022-08-28T12:17:57.255Z,18.00
2022-08-28T12:20:47.299Z,18.10
2022-08-28T12:23:37.596Z,18.20
2022-08-28T12:26:28.764Z,18.10
2022-08-28T12:29:06.248Z,18.10
2022-08-28T12:32:14.975Z,18.10
2022-08-28T12:34:46.177Z,18.30
2022-08-28T12:37:52.733Z,18.30
2022-08-28T12:40:25.958Z,18.20
2022-08-28T12:43:06.581Z,18.20
2022-08-28T12:45:50.029Z,18.30
2022-08-28T12:48:33.744Z,18.40
2022-08-28T12:51:06.762Z,18.50
2022-08-28T12:53:46.739Z,18.50
2022-08-28T12:56:17.128Z,18.50
2022-08-28T12:58:45.024Z,18.40
2022-08-28T13:01:23.553Z,18.50
2022-08-28T13:03:57.777Z,18.30
2022-08-28T13:06:28.894Z,18.40
2022-08-28T13:09:17.409Z,18.50
2022-08-28T13:11:49.875Z,18.60
2022-08-28T13:14:38.699Z,18.80
2022-08-28T13:17:06.025Z,18.90
2022-08-28T13:19:34.956Z,18.90
2022-08-28T13:22:03.599Z,19.10
2022-08-28T13:24:40.096Z,19.10
2022-08-28T13:27:16.335Z,19.10
2022-08-28T13:29:52.226Z,19.20
2022-08-28T13:32:24.910Z,19.20
2022-08-28T13:35:09.682Z,19.30
2022-08-28T13:37:57.734Z,19.40
2022-08-28T13:43:24.347Z,19.40
2022-08-28T13:45:52.407Z,19.60
2022-08-28T13:48:22.762Z,19.70
2022-08-28T13:50:53.691Z,19.70
2022-08-28T13:53:21.083Z,19.70
2022-08-28T13:55:50.227Z,19.30
2022-08-28T13:58:17.577Z,19.10
2022-08-28T14:00:47.173Z,19.00
2022-08-28T14:03:33.299Z,19.10
2022-08-28T14:06:00.372Z,19.20
2022-08-28T14:08:27.325Z,19.60
2022-08-28T14:10:54.236Z,19.60
2022-08-28T14:13:23.149Z,19.80
2022-08-28T14:15:50.168Z,19.80
2022-08-28T14:18:18.077Z,20.00
2022-08-28T14:20:44.948Z,19.90
2022-08-28T14:23:12.452Z,20.00
2022-08-28T14:25:46.571Z,20.00
2022-08-28T14:28:14.707Z,20.00
2022-08-28T14:30:47.836Z,20.10
2022-08-28T14:33:18.730Z,20.30
2022-08-28T14:35:48.891Z,20.50
2022-08-28T14:38:15.926Z,20.70
2022-08-28T14:40:44.488Z,20.70
2022-08-28T14:43:12.939Z,20.90
2022-08-28T14:45:48.097Z,21.00
2022-08-28T14:48:17.356Z,20.80
2022-08-28T14:50:46.753Z,20.70
2022-08-28T14:53:14.543Z,20.80
2022-08-28T14:55:46.899Z,20.60
2022-08-28T14:58:15.043Z,20.40
2022-08-28T15:00:44.941Z,20.50
2022-08-28T15:03:13.766Z,20.60
2022-08-28T15:05:41.122Z,20.80
2022-08-28T15:08:09.323Z,20.80
2022-08-28T15:10:40.599Z,20.60
2022-08-28T15:13:10.067Z,20.60
2022-08-28T15:15:39.583Z,20.70
2022-08-28T15:18:10.604Z,20.80
2022-08-28T15:20:47.023Z,20.80
2022-08-28T15:23:15.502Z,20.80
2022-08-28T15:25:42.915Z,20.90
2022-08-28T15:28:10.433Z,20.80
2022-08-28T15:30:37.410Z,20.90
2022-08-28T15:33:05.081Z,20.70
2022-08-28T15:35:33.802Z,20.70
2022-08-28T15:38:00.974Z,20.70
2022-08-28T15:40:46.815Z,20.70
2022-08-28T15:43:13.745Z,20.90
2022-08-28T15:45:41.860Z,20.90
2022-08-28T15:48:09.375Z,21.10
2022-08-28T15:50:36.461Z,21.10
2022-08-28T15:53:04.463Z,21.10
2022-08-28T15:55:34.047Z,21.30
2022-08-28T15:58:03.955Z,21.20
2022-08-28T16:00:34.665Z,21.40
2022-08-28T16:03:01.590Z,21.40
2022-08-28T16:05:32.391Z,21.40
2022-08-28T16:08:02.318Z,21.40
2022-08-28T16:10:29.861Z,21.50
2022-08-28T16:12:57.705Z,21.40
2022-08-28T16:15:25.055Z,21.50
2022-08-28T16:17:51.892Z,21.40
2022-08-28T16:20:18.850Z,21.40
2022-08-28T16:22:45.688Z,21.40
2022-08-28T16:25:13.082Z,21.50
2022-08-28T16:27:40.966Z,21.40
2022-08-28T16:30:08.372Z,21.10
2022-08-28T16:32:43.002Z,21.30
2022-08-28T16:35:15.008Z,21.40
2022-08-28T16:37:42.824Z,21.30
2022-08-28T16:40:10.973Z,21.40
2022-08-28T16:42:38.627Z,21.30
2022-08-28T16:45:06.943Z,21.40
2022-08-28T16:47:35.234Z,21.40
2022-08-28T16:50:09.118Z,21.20
2022-08-28T16:52:36.122Z,21.10
2022-08-28T16:55:04.495Z,21.00
2022-08-28T16:57:31.350Z,20.90
2022-08-28T16:59:58.170Z,20.80
2022-08-28T17:02:26.653Z,20.60
2022-08-28T17:04:55.205Z,20.70
2022-08-28T17:07:22.855Z,20.70
2022-08-28T17:09:49.669Z,20.70
2022-08-28T17:12:16.756Z,20.80
2022-08-28T17:14:44.130Z,20.80
2022-08-28T17:17:11.371Z,20.60
2022-08-28T17:19:38.474Z,20.60
2022-08-28T17:22:24.300Z,20.50
2022-08-28T17:24:54.904Z,20.40
2022-08-28T17:27:22.623Z,20.30
2022-08-28T17:29:50.343Z,20.20
2022-08-28T17:32:17.611Z,20.00
2022-08-28T17:34:44.671Z,20.10
2022-08-28T17:37:11.810Z,19.90
2022-08-28T17:39:38.783Z,19.90
2022-08-28T17:42:06.118Z,19.90
2022-08-28T17:44:35.137Z,19.70
2022-08-28T17:47:02.107Z,19.70
2022-08-28T17:49:29.145Z,19.50
2022-08-28T17:51:55.965Z,19.40
2022-08-28T17:54:24.303Z,19.20
2022-08-28T17:56:52.928Z,19.00
2022-08-28T17:59:20.621Z,18.90
2022-08-28T18:01:48.245Z,18.80
2022-08-28T18:04:21.662Z,18.70
2022-08-28T18:06:55.059Z,18.50
2022-08-28T18:09:23.486Z,18.50
2022-08-28T18:11:50.938Z,18.30
2022-08-28T18:14:18.052Z,18.20
2022-08-28T18:16:45.136Z,18.10
2022-08-28T18:19:13.601Z,18.00
2022-08-28T18:21:41.083Z,17.90
2022-08-28T18:24:10.148Z,17.80
2022-08-28T18:26:37.017Z,17.70
2022-08-28T18:29:04.114Z,17.60
2022-08-28T18:31:31.154Z,17.50
2022-08-28T18:33:58.097Z,17.40
2022-08-28T18:36:25.010Z,17.30
2022-08-28T18:38:52.235Z,17.30
2022-08-28T18:41:20.351Z,17.20
2022-08-28T18:43:47.941Z,17.10
2022-08-28T18:46:14.878Z,17.10
2022-08-28T18:48:42.896Z,17.00
2022-08-28T18:51:12.032Z,16.90
2022-08-28T18:53:42.345Z,16.80
2022-08-28T18:56:12.174Z,16.70
2022-08-28T18:58:40.630Z,16.60
2022-08-28T19:01:10.681Z,16.60
2022-08-28T19:03:37.807Z,16.60
2022-08-28T19:06:06.351Z,16.60
2022-08-28T19:08:33.266Z,16.50
2022-08-28T19:11:00.080Z,16.40
2022-08-28T19:13:27.866Z,16.30
2022-08-28T19:15:54.815Z,16.30
2022-08-28T19:18:21.713Z,16.30
2022-08-28T19:20:48.984Z,16.30
2022-08-28T19:23:17.742Z,16.30
2022-08-28T19:25:44.974Z,16.30
2022-08-28T19:28:11.796Z,16.30
2022-08-28T19:30:38.686Z,16.20
2022-08-28T19:33:06.062Z,16.20
2022-08-28T19:35:33.814Z,16.10
2022-08-28T19:38:01.289Z,16.10
2022-08-28T19:40:29.000Z,16.10
2022-08-28T19:42:55.944Z,16.00
2022-08-28T19:45:23.406Z,16.00
2022-08-28T19:47:50.423Z,16.00
2022-08-28T19:50:17.594Z,16.00
2022-08-28T19:52:46.402Z,16.10
2022-08-28T19:55:22.683Z,16.40
2022-08-28T19:57:49.929Z,16.30
2022-08-28T20:00:29.199Z,16.30
2022-08-28T20:02:56.111Z,16.30
2022-08-28T20:05:23.163Z,16.40
2022-08-28T20:07:50.349Z,16.50
2022-08-28T20:10:18.142Z,16.60
2022-08-28T20:12:48.204Z,16.50
2022-08-28T20:15:16.675Z,16.40
2022-08-28T20:17:43.690Z,16.60
2022-08-28T20:20:19.284Z,16.60
2022-08-28T20:22:46.333Z,16.70
2022-08-28T20:25:14.770Z,16.60
2022-08-28T20:27:41.747Z,16.50
2022-08-28T20:30:10.809Z,16.40
2022-08-28T20:32:40.808Z,16.30
2022-08-28T20:35:10.164Z,16.40
2022-08-28T20:37:45.104Z,16.30
2022-08-28T20:40:18.617Z,16.30
2022-08-28T20:42:46.253Z,16.50
2022-08-28T20:45:14.134Z,16.30
2022-08-28T20:47:41.234Z,16.30
2022-08-28T20:50:08.641Z,16.30
2022-08-28T20:52:35.516Z,16.30
2022-08-28T20:55:02.533Z,16.40
2022-08-28T20:57:29.451Z,16.20
2022-08-28T20:59:56.402Z,16.20
2022-08-28T21:02:25.706Z,16.10
2022-08-28T21:04:52.646Z,16.10
2022-08-28T21:07:23.763Z,16.10
2022-08-28T21:10:05.828Z,15.90
2022-08-28T21:12:36.006Z,16.10
2022-08-28T21:15:03.546Z,16.00
2022-08-28T21:17:30.884Z,15.90
2022-08-28T21:20:04.159Z,15.80
2022-08-28T21:22:31.972Z,15.80
2022-08-28T21:25:00.150Z,15.80
2022-08-28T21:27:27.282Z,15.90
2022-08-28T21:29:58.862Z,16.00
2022-08-28T21:32:27.140Z,15.90
2022-08-28T21:34:55.092Z,15.80
2022-08-28T21:37:22.954Z,15.80
2022-08-28T21:39:49.851Z,15.80
2022-08-28T21:42:16.919Z,15.80
2022-08-28T21:44:51.419Z,15.70
2022-08-28T21:47:19.372Z,15.70
2022-08-28T21:49:49.471Z,15.60
2022-08-28T21:52:18.258Z,15.60
2022-08-28T21:54:45.466Z,15.50
2022-08-28T21:57:12.329Z,15.50
2022-08-28T21:59:39.447Z,15.40
2022-08-28T22:02:06.616Z,15.40
2022-08-28T22:04:33.786Z,15.30
2022-08-28T22:07:00.768Z,15.20
2022-08-28T22:09:27.693Z,15.20
2022-08-28T22:11:54.581Z,15.10
2022-08-28T22:14:21.398Z,15.10
2022-08-28T22:16:48.295Z,14.90
2022-08-28T22:19:15.148Z,14.70
2022-08-28T22:22:00.474Z,14.70
2022-08-28T22:24:27.310Z,14.70
2022-08-28T22:26:57.357Z,14.60
2022-08-28T22:29:24.957Z,14.60
2022-08-28T22:31:52.521Z,14.60
2022-08-28T22:34:19.489Z,14.60
2022-08-28T22:36:46.444Z,14.60
2022-08-28T22:39:13.305Z,14.40
2022-08-28T22:41:40.377Z,14.30
2022-08-28T22:44:07.673Z,14.20
2022-08-28T22:46:34.615Z,14.20
2022-08-28T22:49:01.505Z,14.10
2022-08-28T22:51:28.354Z,14.00
2022-08-28T22:53:56.006Z,14.00
2022-08-28T22:56:22.865Z,13.90
2022-08-28T22:58:49.677Z,13.80
2022-08-28T23:01:21.203Z,13.80
2022-08-28T23:03:48.344Z,13.70
2022-08-28T23:06:15.678Z,13.70
2022-08-28T23:08:43.307Z,13.70
2022-08-28T23:11:11.285Z,13.60
2022-08-28T23:13:38.782Z,13.60
2022-08-28T23:16:06.867Z,13.60
2022-08-28T23:19:03.936Z,13.60
2022-08-28T23:21:23.730Z,13.50
2022-08-28T23:23:53.284Z,13.50
2022-08-28T23:26:20.461Z,13.40
2022-08-28T23:28:47.350Z,13.30
2022-08-28T23:31:14.229Z,13.20
2022-08-28T23:33:41.342Z,13.20
2022-08-28T23:36:08.931Z,13.20
2022-08-28T23:38:40.447Z,13.10
2022-08-28T23:41:07.657Z,13.10
2022-08-28T23:43:35.576Z,13.10
2022-08-28T23:46:02.475Z,13.00
2022-08-28T23:48:29.579Z,13.00
2022-08-28T23:50:56.403Z,12.90
2022-08-28T23:53:23.325Z,12.80
2022-08-28T23:55:50.375Z,12.80
2022-08-28T23:58:18.294Z,12.80
